sensor_id;sensor_type;location;lat;lon;timestamp;pressure;altitude;pressure_sealevel;temperature;humidity
50368;BME280;36281;34.132;-118.018;2022-10-16T00:01:28;99742.16;;;21.14;82.56
50368;BME280;36281;34.132;-118.018;2022-10-16T00:03:58;99744.31;;;21.12;83.24
50368;BME280;36281;34.132;-118.018;2022-10-16T00:06:29;99750.03;;;21.05;83.75
50368;BME280;36281;34.132;-118.018;2022-10-16T00:08:57;99750.59;;;21.02;83.88
50368;BME280;36281;34.132;-118.018;2022-10-16T00:11:26;99746.31;;;21.01;84.44
50368;BME280;36281;34.132;-118.018;2022-10-16T00:13:56;99735.25;;;21.03;85.01
50368;BME280;36281;34.132;-118.018;2022-10-16T00:16:24;99718.09;;;20.99;84.80
50368;BME280;36281;34.132;-118.018;2022-10-16T00:18:53;99701.97;;;20.94;85.00
50368;BME280;36281;34.132;-118.018;2022-10-16T00:21:23;99714.34;;;20.95;84.92
50368;BME280;36281;34.132;-118.018;2022-10-16T00:23:52;99727.06;;;20.89;83.81
50368;BME280;36281;34.132;-118.018;2022-10-16T00:26:20;99716.22;;;20.94;85.12
50368;BME280;36281;34.132;-118.018;2022-10-16T00:28:49;99705.69;;;20.98;86.01
50368;BME280;36281;34.132;-118.018;2022-10-16T00:31:18;99708.66;;;20.96;86.16
50368;BME280;36281;34.132;-118.018;2022-10-16T00:33:47;99716.50;;;20.92;85.62
50368;BME280;36281;34.132;-118.018;2022-10-16T00:36:16;99730.53;;;20.89;85.00
50368;BME280;36281;34.132;-118.018;2022-10-16T00:38:46;99730.75;;;20.93;86.37
50368;BME280;36281;34.132;-118.018;2022-10-16T00:41:16;99735.34;;;20.92;86.49
50368;BME280;36281;34.132;-118.018;2022-10-16T00:43:45;99737.28;;;20.87;85.76
50368;BME280;36281;34.132;-118.018;2022-10-16T00:46:15;99745.84;;;20.94;86.46
50368;BME280;36281;34.132;-118.018;2022-10-16T00:48:45;99745.56;;;20.96;86.82
50368;BME280;36281;34.132;-118.018;2022-10-16T00:51:15;99740.50;;;20.89;85.83
50368;BME280;36281;34.132;-118.018;2022-10-16T00:53:47;99743.75;;;20.86;86.03
50368;BME280;36281;34.132;-118.018;2022-10-16T00:56:16;99754.47;;;20.91;86.32
50368;BME280;36281;34.132;-118.018;2022-10-16T00:58:44;99749.84;;;20.97;86.94
50368;BME280;36281;34.132;-118.018;2022-10-16T01:01:12;99756.06;;;20.92;87.08
50368;BME280;36281;34.132;-118.018;2022-10-16T01:03:41;99763.66;;;20.90;86.95
50368;BME280;36281;34.132;-118.018;2022-10-16T01:06:12;99764.97;;;20.92;87.33
50368;BME280;36281;34.132;-118.018;2022-10-16T01:08:49;99765.50;;;20.95;87.18
50368;BME280;36281;34.132;-118.018;2022-10-16T01:11:22;99791.84;;;20.98;87.91
50368;BME280;36281;34.132;-118.018;2022-10-16T01:13:53;99801.00;;;20.97;87.86
50368;BME280;36281;34.132;-118.018;2022-10-16T01:16:25;99818.75;;;20.98;87.75
50368;BME280;36281;34.132;-118.018;2022-10-16T01:18:57;99844.91;;;20.92;87.34
50368;BME280;36281;34.132;-118.018;2022-10-16T01:21:29;99856.53;;;20.87;87.14
50368;BME280;36281;34.132;-118.018;2022-10-16T01:24:03;99877.56;;;20.80;87.47
50368;BME280;36281;34.132;-118.018;2022-10-16T01:26:40;99897.50;;;20.79;88.00
50368;BME280;36281;34.132;-118.018;2022-10-16T01:29:13;99911.47;;;20.81;89.03
50368;BME280;36281;34.132;-118.018;2022-10-16T01:31:44;99910.38;;;20.82;89.45
50368;BME280;36281;34.132;-118.018;2022-10-16T01:34:16;99906.91;;;20.82;89.50
50368;BME280;36281;34.132;-118.018;2022-10-16T01:36:47;99898.91;;;20.67;89.51
50368;BME280;36281;34.132;-118.018;2022-10-16T01:39:18;99921.13;;;20.87;89.48
50368;BME280;36281;34.132;-118.018;2022-10-16T01:41:51;99916.53;;;20.88;89.30
50368;BME280;36281;34.132;-118.018;2022-10-16T01:44:24;99920.91;;;20.84;88.41
50368;BME280;36281;34.132;-118.018;2022-10-16T01:46:53;99923.69;;;20.69;85.20
50368;BME280;36281;34.132;-118.018;2022-10-16T01:49:23;99923.41;;;20.65;85.01
50368;BME280;36281;34.132;-118.018;2022-10-16T01:51:54;99927.47;;;20.57;83.27
50368;BME280;36281;34.132;-118.018;2022-10-16T01:54:23;99922.66;;;20.54;82.88
50368;BME280;36281;34.132;-118.018;2022-10-16T01:56:53;99915.94;;;20.52;81.50
50368;BME280;36281;34.132;-118.018;2022-10-16T01:59:24;99928.56;;;20.56;81.19
50368;BME280;36281;34.132;-118.018;2022-10-16T02:01:54;99919.44;;;20.52;81.08
50368;BME280;36281;34.132;-118.018;2022-10-16T02:04:24;99917.28;;;20.54;80.84
50368;BME280;36281;34.132;-118.018;2022-10-16T02:06:53;99911.63;;;20.56;80.71
50368;BME280;36281;34.132;-118.018;2022-10-16T02:09:22;99903.53;;;20.56;79.97
50368;BME280;36281;34.132;-118.018;2022-10-16T02:11:50;99904.34;;;20.56;80.45
50368;BME280;36281;34.132;-118.018;2022-10-16T02:14:20;99926.97;;;20.55;81.40
50368;BME280;36281;34.132;-118.018;2022-10-16T02:16:51;99927.78;;;20.51;81.55
50368;BME280;36281;34.132;-118.018;2022-10-16T02:19:19;99932.91;;;20.47;81.95
50368;BME280;36281;34.132;-118.018;2022-10-16T02:21:50;99924.81;;;20.42;80.97
50368;BME280;36281;34.132;-118.018;2022-10-16T02:24:20;99920.53;;;20.36;81.37
50368;BME280;36281;34.132;-118.018;2022-10-16T02:26:49;99917.88;;;20.31;80.25
50368;BME280;36281;34.132;-118.018;2022-10-16T02:29:20;99918.69;;;20.31;79.18
50368;BME280;36281;34.132;-118.018;2022-10-16T02:31:52;99918.69;;;20.31;79.13
50368;BME280;36281;34.132;-118.018;2022-10-16T02:34:22;99918.66;;;20.36;80.27
50368;BME280;36281;34.132;-118.018;2022-10-16T02:36:52;99913.00;;;20.38;81.14
50368;BME280;36281;34.132;-118.018;2022-10-16T02:39:20;99915.16;;;20.36;81.80
50368;BME280;36281;34.132;-118.018;2022-10-16T02:41:49;99914.09;;;20.32;82.07
50368;BME280;36281;34.132;-118.018;2022-10-16T02:44:17;99904.97;;;20.23;80.36
50368;BME280;36281;34.132;-118.018;2022-10-16T02:46:45;99905.78;;;20.23;80.31
50368;BME280;36281;34.132;-118.018;2022-10-16T02:49:15;99902.31;;;20.18;79.96
50368;BME280;36281;34.132;-118.018;2022-10-16T02:51:43;99895.63;;;20.15;80.11
50368;BME280;36281;34.132;-118.018;2022-10-16T02:54:11;99888.88;;;20.12;79.66
50368;BME280;36281;34.132;-118.018;2022-10-16T02:56:40;99835.22;;;19.87;79.83
50368;BME280;36281;34.132;-118.018;2022-10-16T02:59:08;99869.56;;;20.05;79.06
50368;BME280;36281;34.132;-118.018;2022-10-16T03:01:37;99871.16;;;20.06;78.37
50368;BME280;36281;34.132;-118.018;2022-10-16T03:04:05;99850.19;;;20.03;78.20
50368;BME280;36281;34.132;-118.018;2022-10-16T03:06:35;99838.66;;;20.03;77.94
50368;BME280;36281;34.132;-118.018;2022-10-16T03:09:03;99844.31;;;20.01;77.72
50368;BME280;36281;34.132;-118.018;2022-10-16T03:11:31;99858.84;;;20.00;77.32
50368;BME280;36281;34.132;-118.018;2022-10-16T03:13:59;99858.25;;;20.03;77.50
50368;BME280;36281;34.132;-118.018;2022-10-16T03:16:28;99857.47;;;20.03;76.61
50368;BME280;36281;34.132;-118.018;2022-10-16T03:18:56;99860.44;;;20.01;76.28
50368;BME280;36281;34.132;-118.018;2022-10-16T03:21:24;99843.81;;;19.89;75.97
50368;BME280;36281;34.132;-118.018;2022-10-16T03:23:54;99863.63;;;20.03;75.60
50368;BME280;36281;34.132;-118.018;2022-10-16T03:26:22;99855.84;;;20.02;76.50
50368;BME280;36281;34.132;-118.018;2022-10-16T03:28:50;99841.91;;;20.00;75.49
50368;BME280;36281;34.132;-118.018;2022-10-16T03:31:18;99840.00;;;20.00;75.34
50368;BME280;36281;34.132;-118.018;2022-10-16T03:33:46;99832.75;;;20.01;75.38
50368;BME280;36281;34.132;-118.018;2022-10-16T03:36:15;99825.78;;;20.00;75.67
50368;BME280;36281;34.132;-118.018;2022-10-16T03:38:43;99845.66;;;19.99;75.31
50368;BME280;36281;34.132;-118.018;2022-10-16T03:41:13;99841.34;;;20.03;75.75
50368;BME280;36281;34.132;-118.018;2022-10-16T03:43:41;99823.88;;;20.00;75.75
50368;BME280;36281;34.132;-118.018;2022-10-16T03:46:09;99817.72;;;20.00;75.32
50368;BME280;36281;34.132;-118.018;2022-10-16T03:48:37;99826.03;;;19.98;75.30
50368;BME280;36281;34.132;-118.018;2022-10-16T03:51:07;99824.41;;;19.97;75.72
50368;BME280;36281;34.132;-118.018;2022-10-16T03:53:35;99831.69;;;19.97;75.46
50368;BME280;36281;34.132;-118.018;2022-10-16T03:56:03;99845.94;;;19.97;75.61
50368;BME280;36281;34.132;-118.018;2022-10-16T03:58:33;99848.34;;;19.94;74.83
50368;BME280;36281;34.132;-118.018;2022-10-16T04:01:01;99849.44;;;19.93;74.79
50368;BME280;36281;34.132;-118.018;2022-10-16T04:03:30;99844.59;;;19.95;73.13
50368;BME280;36281;34.132;-118.018;2022-10-16T04:05:58;99849.16;;;19.99;73.54
50368;BME280;36281;34.132;-118.018;2022-10-16T04:08:26;99844.84;;;19.98;73.68
50368;BME280;36281;34.132;-118.018;2022-10-16T04:10:55;99852.38;;;19.96;73.41
50368;BME280;36281;34.132;-118.018;2022-10-16T04:13:23;99863.16;;;19.91;72.51
50368;BME280;36281;34.132;-118.018;2022-10-16T04:15:53;99870.16;;;19.87;72.50
50368;BME280;36281;34.132;-118.018;2022-10-16T04:18:21;99877.69;;;19.85;72.06
50368;BME280;36281;34.132;-118.018;2022-10-16T04:20:49;99877.94;;;19.83;72.29
50368;BME280;36281;34.132;-118.018;2022-10-16T04:23:17;99880.09;;;19.86;72.34
50368;BME280;36281;34.132;-118.018;2022-10-16T04:25:45;99878.22;;;19.82;72.45
50368;BME280;36281;34.132;-118.018;2022-10-16T04:28:14;99895.69;;;19.84;72.67
50368;BME280;36281;34.132;-118.018;2022-10-16T04:30:42;99916.66;;;19.82;72.21
50368;BME280;36281;34.132;-118.018;2022-10-16T04:33:12;99957.25;;;19.81;72.38
50368;BME280;36281;34.132;-118.018;2022-10-16T04:35:40;100001.56;;;19.83;72.56
50368;BME280;36281;34.132;-118.018;2022-10-16T04:38:08;100055.88;;;19.85;73.70
50368;BME280;36281;34.132;-118.018;2022-10-16T04:40:37;100093.22;;;19.87;74.30
50368;BME280;36281;34.132;-118.018;2022-10-16T04:43:05;100115.53;;;19.82;74.35
50368;BME280;36281;34.132;-118.018;2022-10-16T04:45:33;100108.81;;;19.75;75.36
50368;BME280;36281;34.132;-118.018;2022-10-16T04:48:01;100041.34;;;19.71;75.94
50368;BME280;36281;34.132;-118.018;2022-10-16T04:50:31;99974.47;;;19.70;76.28
50368;BME280;36281;34.132;-118.018;2022-10-16T04:52:59;99987.34;;;19.73;77.67
50368;BME280;36281;34.132;-118.018;2022-10-16T04:55:28;99973.09;;;19.77;80.19
50368;BME280;36281;34.132;-118.018;2022-10-16T04:57:56;99969.09;;;19.70;81.32
50368;BME280;36281;34.132;-118.018;2022-10-16T05:00:24;99962.34;;;19.62;82.52
50368;BME280;36281;34.132;-118.018;2022-10-16T05:02:53;99952.69;;;19.61;84.19
50368;BME280;36281;34.132;-118.018;2022-10-16T05:05:21;99933.56;;;19.52;85.02
50368;BME280;36281;34.132;-118.018;2022-10-16T05:07:51;99937.34;;;19.46;85.26
50368;BME280;36281;34.132;-118.018;2022-10-16T05:10:19;99945.91;;;19.38;84.88
50368;BME280;36281;34.132;-118.018;2022-10-16T05:12:47;99955.56;;;19.34;85.42
50368;BME280;36281;34.132;-118.018;2022-10-16T05:15:15;99964.47;;;19.29;85.53
50368;BME280;36281;34.132;-118.018;2022-10-16T05:17:44;99959.88;;;19.25;85.59
50368;BME280;36281;34.132;-118.018;2022-10-16T05:20:12;99963.38;;;19.20;85.87
50368;BME280;36281;34.132;-118.018;2022-10-16T05:22:40;99950.75;;;19.16;85.64
50368;BME280;36281;34.132;-118.018;2022-10-16T05:25:11;99959.88;;;19.09;85.29
50368;BME280;36281;34.132;-118.018;2022-10-16T05:27:39;99953.94;;;19.07;86.44
50368;BME280;36281;34.132;-118.018;2022-10-16T05:30:07;99931.94;;;19.05;86.52
50368;BME280;36281;34.132;-118.018;2022-10-16T05:32:38;99905.34;;;19.04;87.04
50368;BME280;36281;34.132;-118.018;2022-10-16T05:35:06;99880.66;;;19.02;88.21
50368;BME280;36281;34.132;-118.018;2022-10-16T05:37:37;99871.25;;;18.94;87.71
50368;BME280;36281;34.132;-118.018;2022-10-16T05:40:06;99866.94;;;18.93;87.68
50368;BME280;36281;34.132;-118.018;2022-10-16T05:42:36;99863.72;;;18.86;87.34
50368;BME280;36281;34.132;-118.018;2022-10-16T05:45:05;99854.59;;;18.82;87.35
50368;BME280;36281;34.132;-118.018;2022-10-16T05:47:33;99854.59;;;18.82;87.61
50368;BME280;36281;34.132;-118.018;2022-10-16T05:50:02;99855.69;;;18.81;88.40
50368;BME280;36281;34.132;-118.018;2022-10-16T05:52:31;99849.75;;;18.79;88.35
50368;BME280;36281;34.132;-118.018;2022-10-16T05:54:59;99845.47;;;18.78;88.66
50368;BME280;36281;34.132;-118.018;2022-10-16T05:57:28;99839.81;;;18.79;89.26
50368;BME280;36281;34.132;-118.018;2022-10-16T05:59:57;99818.13;;;18.81;89.38
50368;BME280;36281;34.132;-118.018;2022-10-16T06:02:26;99808.69;;;18.73;89.41
50368;BME280;36281;34.132;-118.018;2022-10-16T06:04:54;99811.66;;;18.72;88.94
50368;BME280;36281;34.132;-118.018;2022-10-16T06:07:22;99819.44;;;18.73;88.83
50368;BME280;36281;34.132;-118.018;2022-10-16T06:09:51;99816.19;;;18.66;88.75
50368;BME280;36281;34.132;-118.018;2022-10-16T06:12:19;99836.03;;;18.65;89.11
50368;BME280;36281;34.132;-118.018;2022-10-16T06:14:48;99844.88;;;18.60;88.17
50368;BME280;36281;34.132;-118.018;2022-10-16T06:17:18;99836.25;;;18.53;87.99
50368;BME280;36281;34.132;-118.018;2022-10-16T06:19:46;99843.25;;;18.59;88.07
50368;BME280;36281;34.132;-118.018;2022-10-16T06:22:14;99845.69;;;18.61;88.13
50368;BME280;36281;34.132;-118.018;2022-10-16T06:24:42;99857.50;;;18.60;87.92
50368;BME280;36281;34.132;-118.018;2022-10-16T06:27:10;99850.47;;;18.54;87.75
50368;BME280;36281;34.132;-118.018;2022-10-16T06:29:38;99849.44;;;18.55;87.04
50368;BME280;36281;34.132;-118.018;2022-10-16T06:32:07;99850.75;;;18.52;86.52
50368;BME280;36281;34.132;-118.018;2022-10-16T06:34:36;99849.94;;;18.52;86.43
50368;BME280;36281;34.132;-118.018;2022-10-16T06:37:07;99853.16;;;18.54;86.45
50368;BME280;36281;34.132;-118.018;2022-10-16T06:39:35;99844.31;;;18.53;86.40
50368;BME280;36281;34.132;-118.018;2022-10-16T06:42:04;99846.47;;;18.51;86.06
50368;BME280;36281;34.132;-118.018;2022-10-16T06:44:32;99848.59;;;18.54;86.24
50368;BME280;36281;34.132;-118.018;2022-10-16T06:47:00;99847.00;;;18.53;86.57
50368;BME280;36281;34.132;-118.018;2022-10-16T06:49:28;99853.44;;;18.52;86.37
50368;BME280;36281;34.132;-118.018;2022-10-16T06:51:58;99860.94;;;18.50;87.15
50368;BME280;36281;34.132;-118.018;2022-10-16T06:54:26;99858.25;;;18.45;88.15
50368;BME280;36281;34.132;-118.018;2022-10-16T06:56:54;99853.69;;;18.46;88.77
50368;BME280;36281;34.132;-118.018;2022-10-16T06:59:23;99809.38;;;18.23;88.87
50368;BME280;36281;34.132;-118.018;2022-10-16T07:01:51;99849.13;;;18.46;88.76
50368;BME280;36281;34.132;-118.018;2022-10-16T07:04:19;99838.66;;;18.45;88.79
50368;BME280;36281;34.132;-118.018;2022-10-16T07:06:47;99841.59;;;18.43;89.00
50368;BME280;36281;34.132;-118.018;2022-10-16T07:09:17;99830.34;;;18.41;89.15
50368;BME280;36281;34.132;-118.018;2022-10-16T07:11:45;99836.25;;;18.43;89.23
50368;BME280;36281;34.132;-118.018;2022-10-16T07:14:14;99846.16;;;18.38;89.18
50368;BME280;36281;34.132;-118.018;2022-10-16T07:16:43;99848.53;;;18.34;89.30
50368;BME280;36281;34.132;-118.018;2022-10-16T07:19:11;99845.34;;;18.37;90.05
50368;BME280;36281;34.132;-118.018;2022-10-16T07:21:42;99846.16;;;18.43;90.03
50368;BME280;36281;34.132;-118.018;2022-10-16T07:24:11;99858.75;;;18.42;90.13
50368;BME280;36281;34.132;-118.018;2022-10-16T07:26:44;99860.63;;;18.37;89.93
50368;BME280;36281;34.132;-118.018;2022-10-16T07:29:13;99854.69;;;18.29;89.92
50368;BME280;36281;34.132;-118.018;2022-10-16T07:31:41;99854.16;;;18.27;89.97
50368;BME280;36281;34.132;-118.018;2022-10-16T07:34:09;99861.91;;;18.24;89.93
50368;BME280;36281;34.132;-118.018;2022-10-16T07:36:38;99875.84;;;18.21;90.00
50368;BME280;36281;34.132;-118.018;2022-10-16T07:39:06;99869.94;;;18.19;90.19
50368;BME280;36281;34.132;-118.018;2022-10-16T07:41:34;99861.38;;;18.22;90.27
50368;BME280;36281;34.132;-118.018;2022-10-16T07:44:06;99871.81;;;18.23;90.35
50368;BME280;36281;34.132;-118.018;2022-10-16T07:46:34;99874.75;;;18.17;90.32
50368;BME280;36281;34.132;-118.018;2022-10-16T07:49:03;99888.44;;;18.15;90.48
50368;BME280;36281;34.132;-118.018;2022-10-16T07:51:31;99879.84;;;18.18;90.18
50368;BME280;36281;34.132;-118.018;2022-10-16T07:54:00;99880.66;;;18.19;90.10
50368;BME280;36281;34.132;-118.018;2022-10-16T07:56:30;99882.22;;;18.15;89.86
50368;BME280;36281;34.132;-118.018;2022-10-16T07:58:58;99879.78;;;18.08;89.73
50368;BME280;36281;34.132;-118.018;2022-10-16T08:01:28;99878.47;;;18.05;89.77
50368;BME280;36281;34.132;-118.018;2022-10-16T08:03:56;99893.97;;;18.03;89.90
50368;BME280;36281;34.132;-118.018;2022-10-16T08:06:24;99898.25;;;18.04;90.28
50368;BME280;36281;34.132;-118.018;2022-10-16T08:08:54;99898.50;;;17.98;90.30
50368;BME280;36281;34.132;-118.018;2022-10-16T08:11:22;99904.66;;;17.98;90.42
50368;BME280;36281;34.132;-118.018;2022-10-16T08:13:51;99905.75;;;17.97;90.48
50368;BME280;36281;34.132;-118.018;2022-10-16T08:16:19;99905.75;;;17.97;90.51
50368;BME280;36281;34.132;-118.018;2022-10-16T08:18:49;99917.22;;;17.93;90.43
50368;BME280;36281;34.132;-118.018;2022-10-16T08:21:19;99925.50;;;17.86;90.59
50368;BME280;36281;34.132;-118.018;2022-10-16T08:23:48;99928.69;;;17.83;90.80
50368;BME280;36281;34.132;-118.018;2022-10-16T08:26:20;99933.78;;;17.85;91.00
50368;BME280;36281;34.132;-118.018;2022-10-16T08:28:49;99927.63;;;17.84;91.22
50368;BME280;36281;34.132;-118.018;2022-10-16T08:31:18;99922.81;;;17.86;90.81
50368;BME280;36281;34.132;-118.018;2022-10-16T08:33:47;99923.06;;;17.85;90.60
50368;BME280;36281;34.132;-118.018;2022-10-16T08:36:17;99939.91;;;17.80;90.85
50368;BME280;36281;34.132;-118.018;2022-10-16T08:38:47;99948.50;;;17.82;90.72
50368;BME280;36281;34.132;-118.018;2022-10-16T08:41:19;99951.97;;;17.77;90.90
50368;BME280;36281;34.132;-118.018;2022-10-16T08:43:57;99965.06;;;17.74;90.95
50368;BME280;36281;34.132;-118.018;2022-10-16T08:46:31;99979.56;;;17.78;91.31
50368;BME280;36281;34.132;-118.018;2022-10-16T08:49:03;99966.97;;;17.78;91.21
50368;BME280;36281;34.132;-118.018;2022-10-16T08:51:36;99970.72;;;17.77;91.54
50368;BME280;36281;34.132;-118.018;2022-10-16T08:54:11;99978.44;;;17.74;91.37
50368;BME280;36281;34.132;-118.018;2022-10-16T08:56:43;99980.88;;;17.75;91.66
50368;BME280;36281;34.132;-118.018;2022-10-16T08:59:11;99988.41;;;17.78;92.02
50368;BME280;36281;34.132;-118.018;2022-10-16T09:01:44;100002.06;;;17.77;92.14
50368;BME280;36281;34.132;-118.018;2022-10-16T09:07:10;99997.56;;;17.88;92.90
50368;BME280;36281;34.132;-118.018;2022-10-16T09:09:48;99991.94;;;17.89;92.89
50368;BME280;36281;34.132;-118.018;2022-10-16T09:12:22;99993.06;;;17.93;93.25
50368;BME280;36281;34.132;-118.018;2022-10-16T09:14:56;99997.13;;;17.96;93.45
50368;BME280;36281;34.132;-118.018;2022-10-16T09:17:32;99997.38;;;17.99;93.61
50368;BME280;36281;34.132;-118.018;2022-10-16T09:22:52;99994.16;;;17.97;93.83
50368;BME280;36281;34.132;-118.018;2022-10-16T09:25:21;100000.41;;;18.08;93.71
50368;BME280;36281;34.132;-118.018;2022-10-16T09:27:50;100001.81;;;18.16;94.00
50368;BME280;36281;34.132;-118.018;2022-10-16T09:30:20;100002.88;;;18.20;94.21
50368;BME280;36281;34.132;-118.018;2022-10-16T09:32:51;100004.00;;;18.24;93.91
50368;BME280;36281;34.132;-118.018;2022-10-16T09:35:20;100004.00;;;18.29;93.90
50368;BME280;36281;34.132;-118.018;2022-10-16T09:37:52;99997.06;;;18.33;93.71
50368;BME280;36281;34.132;-118.018;2022-10-16T09:40:25;100000.31;;;18.35;93.93
50368;BME280;36281;34.132;-118.018;2022-10-16T09:42:56;100011.59;;;18.37;94.02
50368;BME280;36281;34.132;-118.018;2022-10-16T09:45:25;100006.53;;;18.41;93.83
50368;BME280;36281;34.132;-118.018;2022-10-16T09:47:53;100004.38;;;18.43;93.92
50368;BME280;36281;34.132;-118.018;2022-10-16T09:50:24;100007.34;;;18.46;94.24
50368;BME280;36281;34.132;-118.018;2022-10-16T09:53:05;100005.75;;;18.45;93.96
50368;BME280;36281;34.132;-118.018;2022-10-16T09:55:33;100009.47;;;18.44;94.06
50368;BME280;36281;34.132;-118.018;2022-10-16T09:58:01;99997.63;;;18.35;93.89
50368;BME280;36281;34.132;-118.018;2022-10-16T10:00:30;100006.78;;;18.44;94.25
50368;BME280;36281;34.132;-118.018;2022-10-16T10:02:59;100002.75;;;18.42;94.15
50368;BME280;36281;34.132;-118.018;2022-10-16T10:05:51;100000.63;;;18.49;94.15
50368;BME280;36281;34.132;-118.018;2022-10-16T10:08:24;100002.28;;;18.50;93.78
50368;BME280;36281;34.132;-118.018;2022-10-16T10:10:52;99997.16;;;18.48;93.70
50368;BME280;36281;34.132;-118.018;2022-10-16T10:13:22;99997.97;;;18.49;93.73
50368;BME280;36281;34.132;-118.018;2022-10-16T10:15:52;99988.88;;;18.50;93.91
50368;BME280;36281;34.132;-118.018;2022-10-16T10:18:20;99989.69;;;18.50;94.27
50368;BME280;36281;34.132;-118.018;2022-10-16T10:20:57;99981.09;;;18.53;94.65
50368;BME280;36281;34.132;-118.018;2022-10-16T10:23:28;99969.81;;;18.51;94.86
50368;BME280;36281;34.132;-118.018;2022-10-16T10:25:58;99957.69;;;18.39;94.63
50368;BME280;36281;34.132;-118.018;2022-10-16T10:28:36;99975.16;;;18.46;94.25
50368;BME280;36281;34.132;-118.018;2022-10-16T10:31:08;99968.19;;;18.45;94.63
50368;BME280;36281;34.132;-118.018;2022-10-16T10:33:41;99970.34;;;18.48;94.69
50368;BME280;36281;34.132;-118.018;2022-10-16T10:36:21;99969.81;;;18.51;94.95
50368;BME280;36281;34.132;-118.018;2022-10-16T10:38:53;99955.31;;;18.47;95.03
50368;BME280;36281;34.132;-118.018;2022-10-16T10:44:18;99978.16;;;18.50;94.42
50368;BME280;36281;34.132;-118.018;2022-10-16T10:46:49;99977.06;;;18.51;94.58
50368;BME280;36281;34.132;-118.018;2022-10-16T10:49:27;99979.47;;;18.52;95.09
50368;BME280;36281;34.132;-118.018;2022-10-16T10:52:02;99986.44;;;18.53;95.45
50368;BME280;36281;34.132;-118.018;2022-10-16T10:54:38;99987.53;;;18.52;95.45
50368;BME280;36281;34.132;-118.018;2022-10-16T10:57:10;99988.06;;;18.54;95.42
50368;BME280;36281;34.132;-118.018;2022-10-16T11:02:30;99988.91;;;18.55;95.67
50368;BME280;36281;34.132;-118.018;2022-10-16T11:07:58;99985.38;;;18.54;95.38
50368;BME280;36281;34.132;-118.018;2022-10-16T11:10:30;99990.22;;;18.57;95.35
50368;BME280;36281;34.132;-118.018;2022-10-16T11:13:04;99988.66;;;18.62;95.66
50368;BME280;36281;34.132;-118.018;2022-10-16T11:15:37;99991.88;;;18.64;95.50
50368;BME280;36281;34.132;-118.018;2022-10-16T11:18:07;99991.88;;;18.64;95.57
50368;BME280;36281;34.132;-118.018;2022-10-16T11:20:41;99984.88;;;18.63;95.52
50368;BME280;36281;34.132;-118.018;2022-10-16T11:23:14;99991.06;;;18.63;95.57
50368;BME280;36281;34.132;-118.018;2022-10-16T11:25:45;99991.88;;;18.64;95.63
50368;BME280;36281;34.132;-118.018;2022-10-16T11:28:14;99998.81;;;18.59;95.43
50368;BME280;36281;34.132;-118.018;2022-10-16T11:30:44;100003.13;;;18.60;95.64
50368;BME280;36281;34.132;-118.018;2022-10-16T11:33:20;100015.75;;;18.60;95.92
50368;BME280;36281;34.132;-118.018;2022-10-16T11:35:52;100016.53;;;18.60;96.21
50368;BME280;36281;34.132;-118.018;2022-10-16T11:38:22;100020.84;;;18.62;96.37
50368;BME280;36281;34.132;-118.018;2022-10-16T11:40:54;100028.88;;;18.62;96.54
50368;BME280;36281;34.132;-118.018;2022-10-16T11:43:26;100021.91;;;18.60;96.44
50368;BME280;36281;34.132;-118.018;2022-10-16T11:45:56;100017.38;;;18.66;96.27
50368;BME280;36281;34.132;-118.018;2022-10-16T11:48:27;100025.75;;;18.70;96.30
50368;BME280;36281;34.132;-118.018;2022-10-16T11:51:00;100020.63;;;18.68;96.13
50368;BME280;36281;34.132;-118.018;2022-10-16T11:53:42;100028.09;;;18.66;95.96
50368;BME280;36281;34.132;-118.018;2022-10-16T11:56:15;100030.53;;;18.68;96.31
50368;BME280;36281;34.132;-118.018;2022-10-16T11:58:48;100028.09;;;18.66;96.24
50368;BME280;36281;34.132;-118.018;2022-10-16T12:01:21;100040.72;;;18.66;96.19
50368;BME280;36281;34.132;-118.018;2022-10-16T12:03:55;100044.44;;;18.65;96.49
50368;BME280;36281;34.132;-118.018;2022-10-16T12:06:30;100046.06;;;18.66;96.55
50368;BME280;36281;34.132;-118.018;2022-10-16T12:09:00;100043.69;;;18.69;97.16
50368;BME280;36281;34.132;-118.018;2022-10-16T12:11:35;100049.06;;;18.69;97.18
50368;BME280;36281;34.132;-118.018;2022-10-16T12:14:04;100045.56;;;18.69;97.16
50368;BME280;36281;34.132;-118.018;2022-10-16T12:16:36;100051.50;;;18.71;97.06
50368;BME280;36281;34.132;-118.018;2022-10-16T12:19:11;100060.09;;;18.73;97.29
50368;BME280;36281;34.132;-118.018;2022-10-16T12:21:40;100050.97;;;18.74;97.38
50368;BME280;36281;34.132;-118.018;2022-10-16T12:24:19;100050.72;;;18.75;97.31
50368;BME280;36281;34.132;-118.018;2022-10-16T12:26:50;100058.50;;;18.77;97.65
50368;BME280;36281;34.132;-118.018;2022-10-16T12:29:23;100057.44;;;18.78;97.88
50368;BME280;36281;34.132;-118.018;2022-10-16T12:31:54;100067.09;;;18.79;97.97
50368;BME280;36281;34.132;-118.018;2022-10-16T12:34:26;100062.53;;;18.79;97.78
50368;BME280;36281;34.132;-118.018;2022-10-16T12:37:06;100044.56;;;18.80;97.81
50368;BME280;36281;34.132;-118.018;2022-10-16T12:39:36;100049.66;;;18.81;97.58
50368;BME280;36281;34.132;-118.018;2022-10-16T12:42:19;100053.16;;;18.82;97.06
50368;BME280;36281;34.132;-118.018;2022-10-16T12:44:48;100054.75;;;18.78;96.33
50368;BME280;36281;34.132;-118.018;2022-10-16T12:47:20;100046.72;;;18.83;96.17
50368;BME280;36281;34.132;-118.018;2022-10-16T12:49:48;100046.19;;;18.81;96.00
50368;BME280;36281;34.132;-118.018;2022-10-16T12:52:27;100044.03;;;18.83;96.24
50368;BME280;36281;34.132;-118.018;2022-10-16T12:54:56;100050.97;;;18.79;96.19
50368;BME280;36281;34.132;-118.018;2022-10-16T12:57:33;100049.91;;;18.75;96.12